Limpio, pero nebuloso
Limpio, pero nebuloso
Limpio, pero nebuloso
Limpio, pero nebuloso
Limpio, pero nebuloso
Limpio, sin nubes
Limpio, sin nubes
Limpio, sin nubes
Limpio, sin nubes
(°C)
18°
18°
18°
18°
18°
18°
18°
18°
19°
19°
21°
21°
22°
22°
23°
23°
23°
23°
(°C)
16°
16°
16°
16°
17°
19°
20°
20°
21°
SSO
SSO
SSO
SSO
SSO
SSO
SSO
SSO
SSO
(km/h)
19-38
20-38
20-38
20-39
21-39
22-40
23-42
23-43
24-44
(mm)
0
0
0
0
0
0
0
0
0
(%)
0
0
0
0
0
0
0
0
0

Elevación del sol

/ -20.7°
sun-icon
UV 8
05:04
20:18
Cuarto creciente (93°)
13:03
01:02

METAR a Barnstable (KHYA)

Hora Condiciones Temperatura/
Punto de condensación
Viento Visibilidad Tiempo Nubes Presión Cambiar Bruto
VFR 17.8°C / 15.6°C 210º 9kt >10km - Clear 1013 - KHYA 140556Z AUTO 21009KT 10SM CLR 18/16 A2994 RMK AO2 SLP139 T01780156 10194 20178 56011
VFR 17.8°C / 16.1°C 220º 10kt >10km - Clear 1014 - KHYA 140456Z AUTO 22010KT 10SM CLR 18/16 A2995 RMK AO2 SLP143 T01780161 402330150
VFR 18.3°C / 15.6°C 210º 7kt >10km - Clear 1014 - KHYA 140356Z AUTO 21007KT 10SM CLR 18/16 A2996 RMK AO2 SLP146 T01830156
VFR 18.3°C / 15.6°C 200º 7kt >10km - Clear 1015 - KHYA 140256Z AUTO 20007KT 10SM CLR 18/16 A2997 RMK AO2 SLP150 T01830156 58002
VFR 18.3°C / 16.1°C 200º 7kt >10km - Clear 1015 - KHYA 140156Z 20007KT 10SM CLR 18/16 A2999 RMK AO2 SLP156 T01830161
VFR 19.4°C / 16.7°C 220º 12kt >10km - Clear 1015 - KHYA 140056Z 22012KT 10SM CLR 19/17 A2998 RMK AO2 SLP154 T01940167
VFR 19.4°C / 17.2°C 210º 9kt >10km - Clear 1015 - KHYA 132356Z 21009KT 10SM CLR 19/17 A2998 RMK AO2 SLP152 T01940172 10228 20194 55000
VFR 20.6°C / 17.2°C 220º 14kt Gust 19kt >10km - Clear 1015 - KHYA 132256Z 22014G19KT 10SM CLR 21/17 A2998 RMK AO2 SLP151 T02060172
VFR 21.7°C / 16.7°C 210º 8kt >10km - Clear 1015 - KHYA 132156Z 21008KT 10SM CLR 22/17 A2997 RMK AO2 SLP151 T02170167
VFR 21.7°C / 16.1°C 210º 13kt >10km - Clear 1015 - KHYA 132056Z 21013KT 10SM CLR 22/16 A2998 RMK AO2 SLP152 T02170161 56006
VFR 21.7°C / 16.7°C 200º 13kt Gust 19kt >10km - Clear 1015 - KHYA 131956Z 20013G19KT 10SM CLR 22/17 A2998 RMK AO2 SLP154 T02170167
VFR 22.2°C / 16.1°C 200º 14kt Gust 27kt >10km - Clear 1015 - KHYA 131856Z 20014G27KT 10SM CLR 22/16 A2999 RMK AO2 PK WND 21027/1854 SLP156 T02220161
VFR 21.7°C / 17.2°C 210º 11kt Gust 18kt >10km - Clear 1015 - KHYA 131756Z 21011G18KT 10SM CLR 22/17 A3000 RMK AO2 SLP159 T02170172 10233 20206 58008
VFR 21.7°C / 16.1°C 190º 10kt >10km - Clear 1016 - KHYA 131656Z 19010KT 10SM CLR 22/16 A3001 RMK AO2 SLP162 T02170161
VFR 21.7°C / 16.1°C 210º 11kt >10km - Clear 1016 - KHYA 131556Z 21011KT 10SM CLR 22/16 A3002 RMK AO2 SLP166 T02170161
VFR 22.2°C / 15°C 210º 10kt >10km - Clear 1016 - KHYA 131456Z 21010KT 10SM CLR 22/15 A3002 RMK AO2 SLP167 T02220150 56000
VFR 21.7°C / 15°C 190º 8kt >10km - Clear 1016 - KHYA 131356Z 19008KT 10SM CLR 22/15 A3002 RMK AO2 SLP168 T02170150
VFR 21.7°C / 13.3°C 250º 7kt >10km - Clear 1016 - KHYA 131256Z 25007KT 10SM CLR 22/13 A3002 RMK AO2 SLP167 T02170133
VFR 20.6°C / 13.9°C 260º 5kt >10km - Clear 1016 - KHYA 131156Z 26005KT 10SM CLR 21/14 A3002 RMK AO2 SLP168 T02060139 10206 20150 51016
VFR 18.3°C / 15°C 250º 4kt >10km - Clear 1016 - KHYA 131056Z 25004KT 10SM CLR 18/15 A3001 RMK AO2 SLP164 T01830150
VFR 16.7°C / 15°C 260º 5kt >10km - Clear 1015 - KHYA 130956Z 26005KT 10SM CLR 17/15 A3000 RMK AO2 SLP158 T01670150
VFR 15°C / 13.9°C variable 0kt >10km - Clear 1015 - KHYA 130856Z AUTO 00000KT 10SM CLR 15/14 A2998 RMK AO2 SLP152 T01500139 53003
VFR 16.1°C / 14.4°C 250º 5kt >10km - Clear 1015 - KHYA 130756Z AUTO 25005KT 10SM CLR 16/14 A2997 RMK AO2 SLP151 T01610144
VFR 16.1°C / 14.4°C 240º 4kt >10km - Clear 1015 - KHYA 130656Z AUTO 24004KT 10SM CLR 16/14 A2997 RMK AO2 SLP150 T01610144

VFR

17.8°C / 15.6°C

[Más]
Viento 210º 9kt
Visibilidad >10km
Tiempo -
Nubes Clear
Presión 1013
Cambiar -
Bruto KHYA 140556Z AUTO 21009KT 10SM CLR 18/16 A2994 RMK AO2 SLP139 T01780156 10194 20178 56011

VFR

17.8°C / 16.1°C

[Más]
Viento 220º 10kt
Visibilidad >10km
Tiempo -
Nubes Clear
Presión 1014
Cambiar -
Bruto KHYA 140456Z AUTO 22010KT 10SM CLR 18/16 A2995 RMK AO2 SLP143 T01780161 402330150

VFR

18.3°C / 15.6°C

[Más]
Viento 210º 7kt
Visibilidad >10km
Tiempo -
Nubes Clear
Presión 1014
Cambiar -
Bruto KHYA 140356Z AUTO 21007KT 10SM CLR 18/16 A2996 RMK AO2 SLP146 T01830156

VFR

18.3°C / 15.6°C

[Más]
Viento 200º 7kt
Visibilidad >10km
Tiempo -
Nubes Clear
Presión 1015
Cambiar -
Bruto KHYA 140256Z AUTO 20007KT 10SM CLR 18/16 A2997 RMK AO2 SLP150 T01830156 58002

VFR

18.3°C / 16.1°C

[Más]
Viento 200º 7kt
Visibilidad >10km
Tiempo -
Nubes Clear
Presión 1015
Cambiar -
Bruto KHYA 140156Z 20007KT 10SM CLR 18/16 A2999 RMK AO2 SLP156 T01830161

VFR

19.4°C / 16.7°C

[Más]
Viento 220º 12kt
Visibilidad >10km
Tiempo -
Nubes Clear
Presión 1015
Cambiar -
Bruto KHYA 140056Z 22012KT 10SM CLR 19/17 A2998 RMK AO2 SLP154 T01940167

VFR

19.4°C / 17.2°C

[Más]
Viento 210º 9kt
Visibilidad >10km
Tiempo -
Nubes Clear
Presión 1015
Cambiar -
Bruto KHYA 132356Z 21009KT 10SM CLR 19/17 A2998 RMK AO2 SLP152 T01940172 10228 20194 55000

VFR

20.6°C / 17.2°C

[Más]
Viento 220º 14kt Gust 19kt
Visibilidad >10km
Tiempo -
Nubes Clear
Presión 1015
Cambiar -
Bruto KHYA 132256Z 22014G19KT 10SM CLR 21/17 A2998 RMK AO2 SLP151 T02060172

VFR

21.7°C / 16.7°C

[Más]
Viento 210º 8kt
Visibilidad >10km
Tiempo -
Nubes Clear
Presión 1015
Cambiar -
Bruto KHYA 132156Z 21008KT 10SM CLR 22/17 A2997 RMK AO2 SLP151 T02170167

VFR

21.7°C / 16.1°C

[Más]
Viento 210º 13kt
Visibilidad >10km
Tiempo -
Nubes Clear
Presión 1015
Cambiar -
Bruto KHYA 132056Z 21013KT 10SM CLR 22/16 A2998 RMK AO2 SLP152 T02170161 56006

VFR

21.7°C / 16.7°C

[Más]
Viento 200º 13kt Gust 19kt
Visibilidad >10km
Tiempo -
Nubes Clear
Presión 1015
Cambiar -
Bruto KHYA 131956Z 20013G19KT 10SM CLR 22/17 A2998 RMK AO2 SLP154 T02170167

VFR

22.2°C / 16.1°C

[Más]
Viento 200º 14kt Gust 27kt
Visibilidad >10km
Tiempo -
Nubes Clear
Presión 1015
Cambiar -
Bruto KHYA 131856Z 20014G27KT 10SM CLR 22/16 A2999 RMK AO2 PK WND 21027/1854 SLP156 T02220161

VFR

21.7°C / 17.2°C

[Más]
Viento 210º 11kt Gust 18kt
Visibilidad >10km
Tiempo -
Nubes Clear
Presión 1015
Cambiar -
Bruto KHYA 131756Z 21011G18KT 10SM CLR 22/17 A3000 RMK AO2 SLP159 T02170172 10233 20206 58008

VFR

21.7°C / 16.1°C

[Más]
Viento 190º 10kt
Visibilidad >10km
Tiempo -
Nubes Clear
Presión 1016
Cambiar -
Bruto KHYA 131656Z 19010KT 10SM CLR 22/16 A3001 RMK AO2 SLP162 T02170161

VFR

21.7°C / 16.1°C

[Más]
Viento 210º 11kt
Visibilidad >10km
Tiempo -
Nubes Clear
Presión 1016
Cambiar -
Bruto KHYA 131556Z 21011KT 10SM CLR 22/16 A3002 RMK AO2 SLP166 T02170161

VFR

22.2°C / 15°C

[Más]
Viento 210º 10kt
Visibilidad >10km
Tiempo -
Nubes Clear
Presión 1016
Cambiar -
Bruto KHYA 131456Z 21010KT 10SM CLR 22/15 A3002 RMK AO2 SLP167 T02220150 56000

VFR

21.7°C / 15°C

[Más]
Viento 190º 8kt
Visibilidad >10km
Tiempo -
Nubes Clear
Presión 1016
Cambiar -
Bruto KHYA 131356Z 19008KT 10SM CLR 22/15 A3002 RMK AO2 SLP168 T02170150

VFR

21.7°C / 13.3°C

[Más]
Viento 250º 7kt
Visibilidad >10km
Tiempo -
Nubes Clear
Presión 1016
Cambiar -
Bruto KHYA 131256Z 25007KT 10SM CLR 22/13 A3002 RMK AO2 SLP167 T02170133

VFR

20.6°C / 13.9°C

[Más]
Viento 260º 5kt
Visibilidad >10km
Tiempo -
Nubes Clear
Presión 1016
Cambiar -
Bruto KHYA 131156Z 26005KT 10SM CLR 21/14 A3002 RMK AO2 SLP168 T02060139 10206 20150 51016

VFR

18.3°C / 15°C

[Más]
Viento 250º 4kt
Visibilidad >10km
Tiempo -
Nubes Clear
Presión 1016
Cambiar -
Bruto KHYA 131056Z 25004KT 10SM CLR 18/15 A3001 RMK AO2 SLP164 T01830150

VFR

16.7°C / 15°C

[Más]
Viento 260º 5kt
Visibilidad >10km
Tiempo -
Nubes Clear
Presión 1015
Cambiar -
Bruto KHYA 130956Z 26005KT 10SM CLR 17/15 A3000 RMK AO2 SLP158 T01670150

VFR

15°C / 13.9°C

[Más]
Viento variable 0kt
Visibilidad >10km
Tiempo -
Nubes Clear
Presión 1015
Cambiar -
Bruto KHYA 130856Z AUTO 00000KT 10SM CLR 15/14 A2998 RMK AO2 SLP152 T01500139 53003

VFR

16.1°C / 14.4°C

[Más]
Viento 250º 5kt
Visibilidad >10km
Tiempo -
Nubes Clear
Presión 1015
Cambiar -
Bruto KHYA 130756Z AUTO 25005KT 10SM CLR 16/14 A2997 RMK AO2 SLP151 T01610144

VFR

16.1°C / 14.4°C

[Más]
Viento 240º 4kt
Visibilidad >10km
Tiempo -
Nubes Clear
Presión 1015
Cambiar -
Bruto KHYA 130656Z AUTO 24004KT 10SM CLR 16/14 A2997 RMK AO2 SLP150 T01610144

TAF a Barnstable (KHYA)

From till


From till Wind 220º 9kt. Visibility 9700m. Few Clouds 25000ft.
From till Wind 210º 14kt. Gust 24kt. Visibility 9700m. Few Clouds 20000ft.
From till Wind 220º 8kt. Visibility 9700m. Light Showers Rain . Broken Clouds 2500ft.

Bruto: KHYA 140520Z 1406/1506 22009KT P6SM FEW250 FM141200 21014G24KT P6SM FEW200 FM150100 22008KT P6SM -SHRA BKN025

rainNOW: Previsión de lluvia para Barnstable y alrededores (25km de radio)

0.0 mm
0.0 mm
0.0 mm
0.0 mm
0.0 mm
0.0 mm
0.0 mm
0.0 mm
0.0 mm
0.0 mm
0.0 mm
0.0 mm

Radar y precipitación nowcast para Barnstable

llovizna
Leve
Moderado
Fuerte
Muy fuerte
Granizo

El marcador del lugar se coloca en Barnstable. Esta animación muestra el radar de precipitación para el intervalo de tiempo seleccionado, así como una previsión de 1h. Las cruces naranjas indican rayos. Datos proporcionados por nowcast.de (disponibles en EE.UU., Europa y Australia). La llovizna o una ligera nevada pueden ser invisibles para el radar. La intensidad de la precipitación está codificada por colores, del turquesa al rojo.

Imágenes actuales de satélite para Barnstable, Estados Unidos

El marcador del lugar se coloca en Barnstable. [Más]

La imagen de satélite en tiempo real se aprovecha de la combinación de bandas de la luz visible y de la luz infrarroja. Cómo se pueden detectar cambios de temperaturas a través de la banda infrarrojo, la imagen no aparece oscura de noche. No obstante, la niebla y las nubes bajas son apenas visibles en las imágenes de infrarrojo ya que las diferencias de temperaturas entre el suelo y la niebla son muy pequeñas, por eso, son casi invisibles durante la noche. Las imágenes de satélite del Meteosat (Europa) son actualizados en tiempo real cada 5 minutos. Las imágenes del GOES-16/GOES-17 (América del Norte y América del Sur) y Himawari (Asia) son actualizadas cada 10 minutos.

La precipitación se estima a partir del radar y de los satélites. Las estimaciones de la precipitación desde los satélites son menos precisas durante la noche que durante el día.

© 2024 meteoblue, NOAA Satellites GOES-16 and EUMETSAT. Datos de relámpagos proporcionados por nowcast.

Volver al principio
×
Hola,
parece que está usando un bloqueador de anuncios.

La publicidad es esencial para mantener nuestro sitio web gratuito con detalle y precisión únicos.

Por favor, incluya www.meteoblue.com en la lista blanca de su bloqueador de anuncios o considere comprar uno de nuestros productos:

¿Ya hay subscripción?
Entonces, por favor, iniciar sesión.